Time;durP1;ratioP1;P1;durP2;ratioP2;P2;SDS_P1;SDS_P2;PMS_P1;PMS_P2;Temp;Humidity;BMP_temperature;BMP_pressure;BME280_temperature;BME280_humidity;BME280_pressure;Samples;Min_cycle;Max_cycle;Signal;HPM_P1;HPM_P2
2021/08/21 00:00:10;;;;;;;2.05;1.85;;;24.80;44.40;;;;;;5029547;28;20214;-53
2021/08/21 00:02:37;;;;;;;1.98;1.77;;;24.80;44.40;;;;;;5032428;28;20219;-51
2021/08/21 00:05:03;;;;;;;2.33;1.90;;;24.80;44.40;;;;;;5033500;28;20202;-52
2021/08/21 00:07:30;;;;;;;1.90;1.80;;;24.80;44.40;;;;;;5034179;28;20212;-52
2021/08/21 00:09:57;;;;;;;1.80;1.70;;;24.90;44.50;;;;;;5033614;28;20206;-54
2021/08/21 00:12:23;;;;;;;1.67;1.58;;;24.90;44.50;;;;;;5033647;28;20218;-48
2021/08/21 00:14:49;;;;;;;2.05;1.88;;;24.80;44.40;;;;;;5032904;28;20202;-52
2021/08/21 00:17:16;;;;;;;2.72;2.00;;;24.90;44.50;;;;;;5032827;28;20236;-53
2021/08/21 00:19:42;;;;;;;1.85;1.67;;;24.80;44.40;;;;;;5033367;28;20293;-54
2021/08/21 00:22:10;;;;;;;1.83;1.73;;;24.80;44.40;;;;;;5033589;28;20232;-54
2021/08/21 00:24:36;;;;;;;2.65;1.90;;;24.80;45.10;;;;;;5031757;28;20228;-54
2021/08/21 00:27:03;;;;;;;2.10;1.90;;;24.80;44.40;;;;;;5031621;28;20292;-50
2021/08/21 00:29:30;;;;;;;1.80;1.70;;;24.80;44.40;;;;;;5031499;28;20568;-47
2021/08/21 00:31:57;;;;;;;2.15;1.95;;;24.80;44.40;;;;;;5034072;28;20230;-53
2021/08/21 00:34:23;;;;;;;1.88;1.77;;;24.80;44.50;;;;;;5033068;28;20203;-55
2021/08/21 00:36:50;;;;;;;1.70;1.60;;;24.80;44.60;;;;;;5034205;28;20226;-49
2021/08/21 00:39:16;;;;;;;2.20;1.98;;;24.80;44.60;;;;;;5032923;28;20233;-48
2021/08/21 00:41:43;;;;;;;1.90;1.80;;;24.80;44.50;;;;;;5031657;28;20218;-50
2021/08/21 00:44:09;;;;;;;1.80;1.70;;;24.80;44.60;;;;;;5032932;28;20198;-53
2021/08/21 00:46:35;;;;;;;2.08;1.90;;;24.90;44.70;;;;;;5033972;28;20217;-53
2021/08/21 00:49:02;;;;;;;1.92;1.80;;;24.80;44.60;;;;;;5033032;28;20202;-48
2021/08/21 00:51:29;;;;;;;2.47;2.03;;;24.80;44.60;;;;;;5033585;28;20297;-52
2021/08/21 00:53:55;;;;;;;3.08;2.15;;;24.80;44.60;;;;;;5033014;28;20302;-47
2021/08/21 00:56:22;;;;;;;2.25;1.70;;;24.90;44.80;;;;;;5033276;28;20228;-47
2021/08/21 00:58:48;;;;;;;1.80;1.70;;;24.80;44.70;;;;;;5033341;28;20216;-50
2021/08/21 01:01:14;;;;;;;2.30;2.10;;;24.80;44.60;;;;;;5033219;28;20285;-52
2021/08/21 01:03:41;;;;;;;1.92;1.83;;;24.80;44.60;;;;;;5026497;28;20209;-54
2021/08/21 01:06:07;;;;;;;2.30;1.60;;;24.90;44.80;;;;;;5032613;28;20202;-52
2021/08/21 01:08:34;;;;;;;2.25;2.05;;;24.80;44.70;;;;;;5033261;28;20198;-51
2021/08/21 01:11:00;;;;;;;1.75;1.65;;;24.80;44.70;;;;;;5032113;28;20297;-54
2021/08/21 01:13:27;;;;;;;2.40;1.90;;;24.80;44.70;;;;;;5032426;28;20201;-50
2021/08/21 01:15:53;;;;;;;2.20;2.00;;;24.80;44.70;;;;;;5032411;28;20209;-51
2021/08/21 01:18:20;;;;;;;2.22;2.03;;;24.80;44.80;;;;;;5033034;28;20647;-54
2021/08/21 01:20:46;;;;;;;1.52;1.42;;;24.80;44.70;;;;;;5031561;28;20542;-52
2021/08/21 01:23:13;;;;;;;2.70;1.90;;;24.90;44.90;;;;;;5032550;28;20222;-50
2021/08/21 01:25:39;;;;;;;2.00;1.80;;;24.80;44.80;;;;;;5031751;28;20206;-53
2021/08/21 01:28:06;;;;;;;2.78;2.15;;;24.80;44.80;;;;;;5032974;28;20205;-54
2021/08/21 01:30:32;;;;;;;3.00;2.00;;;24.80;44.90;;;;;;5031501;28;20203;-55
2021/08/21 01:32:58;;;;;;;2.63;1.75;;;24.90;45.00;;;;;;5031285;28;20222;-52
2021/08/21 01:35:25;;;;;;;1.90;1.80;;;24.80;45.00;;;;;;5031975;28;20205;-54
2021/08/21 01:37:51;;;;;;;2.17;1.50;;;24.80;45.00;;;;;;5032305;28;20250;-53
2021/08/21 01:40:18;;;;;;;2.22;2.00;;;24.80;45.00;;;;;;5030816;28;20301;-54
2021/08/21 01:42:44;;;;;;;2.15;1.70;;;24.80;45.00;;;;;;5031933;28;20324;-50
2021/08/21 01:45:13;;;;;;;1.67;1.50;;;24.90;45.10;;;;;;5031781;28;20194;-53
2021/08/21 01:47:39;;;;;;;1.80;1.70;;;24.80;45.00;;;;;;5032779;28;20219;-50
2021/08/21 01:50:06;;;;;;;2.33;1.80;;;24.80;45.00;;;;;;5031446;28;20202;-54
2021/08/21 01:52:32;;;;;;;2.92;1.70;;;24.80;45.10;;;;;;5031539;28;20222;-51
2021/08/21 01:54:59;;;;;;;3.47;1.60;;;24.80;45.10;;;;;;5031965;28;20198;-54
2021/08/21 01:57:25;;;;;;;1.90;1.80;;;24.80;45.10;;;;;;5031742;28;20222;-51
2021/08/21 01:59:51;;;;;;;2.25;2.03;;;24.80;45.10;;;;;;5031052;28;20309;-53
2021/08/21 02:02:18;;;;;;;2.03;1.88;;;24.80;45.20;;;;;;5031810;28;20222;-53
2021/08/21 02:04:45;;;;;;;2.00;1.80;;;24.90;45.30;;;;;;5032206;28;20201;-51
2021/08/21 02:07:11;;;;;;;1.80;1.70;;;24.80;45.10;;;;;;5031950;28;20646;-49
2021/08/21 02:09:38;;;;;;;1.98;1.75;;;24.80;45.10;;;;;;5031673;28;20579;-52
2021/08/21 02:12:04;;;;;;;3.00;1.98;;;24.80;45.10;;;;;;5028639;28;20222;-53
2021/08/21 02:14:30;;;;;;;2.28;1.80;;;24.80;45.20;;;;;;5027476;28;20207;-51
2021/08/21 02:16:57;;;;;;;2.00;1.80;;;24.80;45.20;;;;;;5031069;28;20222;-50
2021/08/21 02:19:23;;;;;;;2.90;1.90;;;24.80;45.20;;;;;;5031085;28;20221;-53
2021/08/21 02:21:50;;;;;;;2.03;1.90;;;24.80;45.90;;;;;;5032124;28;20321;-52
2021/08/21 02:24:16;;;;;;;2.33;1.52;;;24.80;45.20;;;;;;5031273;28;20202;-51
2021/08/21 02:26:43;;;;;;;2.00;1.70;;;24.80;45.20;;;;;;5030420;28;20309;-50
2021/08/21 02:29:10;;;;;;;2.13;1.92;;;24.80;45.20;;;;;;5022552;28;20608;-51
2021/08/21 02:31:36;;;;;;;2.00;1.80;;;24.80;45.20;;;;;;5029488;28;20733;-47
2021/08/21 02:34:02;;;;;;;2.10;1.63;;;24.80;45.30;;;;;;5031968;28;20659;-47
2021/08/21 02:36:29;;;;;;;1.67;1.58;;;24.80;45.20;;;;;;5028849;28;20713;-48
2021/08/21 02:38:55;;;;;;;2.53;1.83;;;24.80;45.20;;;;;;5031972;28;20217;-47
2021/08/21 02:41:22;;;;;;;2.63;1.58;;;24.80;45.30;;;;;;5029357;28;20223;-47
2021/08/21 02:43:48;;;;;;;1.95;1.63;;;24.80;45.30;;;;;;5030733;28;20202;-47
2021/08/21 02:46:15;;;;;;;1.80;1.70;;;24.80;45.30;;;;;;5031118;28;20207;-50
2021/08/21 02:48:41;;;;;;;2.47;1.65;;;24.80;45.30;;;;;;5029175;28;20293;-49
2021/08/21 02:51:07;;;;;;;1.77;1.67;;;24.80;45.30;;;;;;5030022;28;20224;-52
2021/08/21 02:53:34;;;;;;;2.38;1.70;;;24.80;45.30;;;;;;5031202;28;20202;-49
2021/08/21 02:56:01;;;;;;;2.10;1.90;;;24.80;45.30;;;;;;5029526;28;20198;-51
2021/08/21 02:58:27;;;;;;;1.75;1.65;;;24.80;45.40;;;;;;5028709;28;20241;-49
2021/08/21 03:00:54;;;;;;;1.85;1.60;;;24.80;45.40;;;;;;5030202;28;20226;-48
2021/08/21 03:03:20;;;;;;;1.92;1.42;;;24.80;45.40;;;;;;5030183;28;20215;-48
2021/08/21 03:05:46;;;;;;;2.65;1.85;;;24.80;45.40;;;;;;5022569;28;20203;-49
2021/08/21 03:08:13;;;;;;;1.67;1.58;;;24.80;45.40;;;;;;5030076;28;20208;-46
2021/08/21 03:10:39;;;;;;;3.08;1.80;;;24.80;45.40;;;;;;5030703;28;20222;-47
2021/08/21 03:13:06;;;;;;;2.00;1.80;;;24.80;45.40;;;;;;5031159;28;20208;-51
2021/08/21 03:15:32;;;;;;;1.75;1.60;;;24.80;45.40;;;;;;5029993;28;20202;-46
2021/08/21 03:17:59;;;;;;;1.75;1.65;;;24.80;45.40;;;;;;5030626;28;20230;-48
2021/08/21 03:20:25;;;;;;;2.13;1.92;;;24.80;45.50;;;;;;5029458;28;20195;-49
2021/08/21 03:22:52;;;;;;;2.10;1.90;;;24.80;45.50;;;;;;5030760;28;20199;-49
2021/08/21 03:25:18;;;;;;;2.05;1.85;;;24.80;45.50;;;;;;5029545;28;20733;-49
2021/08/21 03:27:44;;;;;;;1.67;1.58;;;24.80;45.50;;;;;;5029951;28;20213;-51
2021/08/21 03:30:11;;;;;;;1.70;1.60;;;24.80;45.50;;;;;;5027864;28;20630;-51
2021/08/21 03:32:37;;;;;;;1.65;1.55;;;24.80;45.50;;;;;;5030609;28;20218;-49
2021/08/21 03:35:04;;;;;;;1.67;1.58;;;24.80;45.60;;;;;;5029595;28;20202;-50
2021/08/21 03:37:30;;;;;;;1.58;1.48;;;24.80;45.60;;;;;;5032988;28;20236;-48
2021/08/21 03:39:57;;;;;;;1.67;1.58;;;24.80;45.60;;;;;;5033450;28;20214;-48
2021/08/21 03:42:23;;;;;;;1.83;1.70;;;24.80;45.60;;;;;;5034221;28;20228;-46
2021/08/21 03:44:50;;;;;;;2.20;1.83;;;24.80;45.70;;;;;;5032907;28;20209;-47
2021/08/21 03:47:16;;;;;;;1.85;1.73;;;24.80;45.60;;;;;;5034119;28;20210;-46
2021/08/21 03:49:42;;;;;;;2.25;1.50;;;24.80;45.60;;;;;;5032711;28;20202;-48
2021/08/21 03:52:09;;;;;;;1.70;1.60;;;24.80;45.60;;;;;;5034056;28;20224;-46
2021/08/21 03:54:35;;;;;;;1.63;1.42;;;24.80;45.60;;;;;;5034541;28;20201;-46
2021/08/21 03:57:02;;;;;;;1.85;1.70;;;24.80;45.60;;;;;;5033976;28;20202;-46
2021/08/21 03:59:28;;;;;;;1.70;1.60;;;24.80;45.70;;;;;;5033152;28;20198;-51
2021/08/21 04:01:55;;;;;;;1.70;1.60;;;24.80;45.60;;;;;;5033425;28;20218;-51
2021/08/21 04:04:21;;;;;;;1.67;1.58;;;24.80;45.60;;;;;;5034756;28;20216;-47
2021/08/21 04:06:47;;;;;;;1.75;1.65;;;24.80;45.60;;;;;;5032574;28;20205;-46
2021/08/21 04:09:14;;;;;;;2.38;1.70;;;24.80;45.60;;;;;;5032905;28;20833;-46
2021/08/21 04:11:40;;;;;;;1.40;1.30;;;24.80;45.60;;;;;;5033732;28;20222;-48
2021/08/21 04:14:07;;;;;;;1.80;1.70;;;24.80;45.60;;;;;;5033427;28;20212;-47
2021/08/21 04:16:33;;;;;;;1.85;1.73;;;24.80;45.60;;;;;;5034089;28;20199;-47
2021/08/21 04:19:00;;;;;;;2.67;1.60;;;24.80;45.70;;;;;;5034161;28;20222;-47
2021/08/21 04:21:26;;;;;;;1.85;1.45;;;24.80;45.80;;;;;;5032985;28;20234;-47
2021/08/21 04:23:53;;;;;;;1.58;1.42;;;24.80;45.80;;;;;;5034399;28;20205;-50
2021/08/21 04:26:19;;;;;;;1.70;1.60;;;24.80;45.90;;;;;;5028126;28;20500;-49
2021/08/21 04:28:46;;;;;;;1.65;1.55;;;24.80;45.90;;;;;;5031983;28;20537;-47
2021/08/21 04:31:12;;;;;;;2.42;2.20;;;24.80;45.80;;;;;;5032192;28;20708;-51
2021/08/21 04:33:39;;;;;;;1.98;1.70;;;24.80;45.80;;;;;;5033289;28;20659;-53
2021/08/21 04:36:05;;;;;;;1.75;1.65;;;24.80;45.80;;;;;;5033617;28;20203;-52
2021/08/21 04:38:32;;;;;;;2.00;1.80;;;24.80;45.80;;;;;;5032610;28;20228;-52
2021/08/21 04:40:58;;;;;;;1.50;1.40;;;24.80;45.80;;;;;;5031648;28;20233;-52
2021/08/21 04:43:25;;;;;;;1.70;1.60;;;24.80;45.80;;;;;;5033219;28;20198;-49
2021/08/21 04:45:51;;;;;;;1.80;1.50;;;24.80;45.80;;;;;;5033352;28;20215;-51
2021/08/21 04:48:18;;;;;;;1.95;1.73;;;24.80;45.80;;;;;;5031168;28;20194;-51
2021/08/21 04:50:44;;;;;;;1.67;1.58;;;24.80;45.80;;;;;;5030554;28;20215;-52
2021/08/21 04:53:11;;;;;;;1.70;1.60;;;24.80;45.80;;;;;;5032464;28;20580;-52
2021/08/21 04:55:37;;;;;;;1.70;1.60;;;24.80;45.80;;;;;;5032976;28;20560;-53
2021/08/21 04:58:04;;;;;;;1.80;1.70;;;24.80;45.80;;;;;;5031883;28;20288;-52
2021/08/21 05:00:30;;;;;;;1.60;1.50;;;24.80;45.80;;;;;;5030613;28;20226;-50
2021/08/21 05:02:58;;;;;;;2.80;1.55;;;24.80;45.80;;;;;;5032618;28;20575;-52
2021/08/21 05:05:24;;;;;;;1.65;1.55;;;24.70;45.70;;;;;;5027338;28;20632;-52
2021/08/21 05:07:51;;;;;;;1.88;1.67;;;24.80;45.80;;;;;;5030810;28;20214;-52
2021/08/21 05:10:17;;;;;;;2.00;1.90;;;24.70;45.70;;;;;;5032436;28;20213;-50
2021/08/21 05:12:45;;;;;;;2.15;1.95;;;24.70;45.70;;;;;;5031502;28;20198;-53
2021/08/21 05:15:12;;;;;;;1.45;1.35;;;24.80;45.70;;;;;;5032584;28;20681;-50
2021/08/21 05:17:38;;;;;;;2.50;1.77;;;24.80;45.80;;;;;;5027362;28;20630;-51
2021/08/21 05:20:07;;;;;;;1.50;1.40;;;24.80;45.70;;;;;;5032140;28;20198;-51
2021/08/21 05:22:46;;;;;;;1.70;1.60;;;24.80;45.80;;;;;;5031868;28;20202;-51
2021/08/21 05:25:13;;;;;;;1.88;1.52;;;24.80;45.70;;;;;;5025859;28;20266;-49
2021/08/21 05:27:39;;;;;;;1.45;1.30;;;24.80;45.70;;;;;;5030475;28;20213;-50
2021/08/21 05:30:06;;;;;;;1.73;1.50;;;24.80;45.70;;;;;;5012119;28;20213;-52
2021/08/21 05:32:32;;;;;;;2.70;1.98;;;24.80;45.70;;;;;;5025313;28;20198;-53
2021/08/21 05:34:59;;;;;;;2.00;1.90;;;24.80;45.70;;;;;;5030770;28;20207;-52
2021/08/21 05:37:25;;;;;;;1.65;1.55;;;24.80;45.70;;;;;;5024961;28;20214;-52
2021/08/21 05:39:51;;;;;;;1.67;1.50;;;24.80;45.70;;;;;;5031897;28;20207;-52
2021/08/21 05:42:18;;;;;;;1.85;1.75;;;24.70;45.60;;;;;;5030985;28;20223;-49
2021/08/21 05:44:44;;;;;;;1.70;1.60;;;24.80;45.70;;;;;;5032305;28;20207;-52
2021/08/21 05:47:11;;;;;;;2.22;1.70;;;24.80;45.60;;;;;;5031125;28;20617;-50
2021/08/21 05:49:37;;;;;;;1.60;1.50;;;24.80;45.70;;;;;;5031731;28;20576;-49
2021/08/21 05:52:04;;;;;;;1.70;1.60;;;24.80;45.60;;;;;;5028164;28;20698;-48
2021/08/21 05:54:30;;;;;;;1.65;1.40;;;24.80;45.70;;;;;;5032168;28;20734;-51
2021/08/21 05:56:57;;;;;;;1.67;1.58;;;24.80;45.80;;;;;;5031118;28;20209;-52
2021/08/21 05:59:23;;;;;;;1.70;1.30;;;24.80;45.90;;;;;;5030357;28;20730;-50
2021/08/21 06:01:50;;;;;;;1.90;1.80;;;24.80;45.90;;;;;;5031547;28;20694;-49
2021/08/21 06:04:16;;;;;;;1.73;1.60;;;24.80;46.00;;;;;;5030332;28;20674;-48
2021/08/21 06:06:43;;;;;;;1.63;1.40;;;24.80;46.10;;;;;;5024298;28;20203;-49
2021/08/21 06:09:09;;;;;;;1.98;1.50;;;24.80;46.10;;;;;;5030216;28;20213;-53
2021/08/21 06:11:35;;;;;;;2.58;1.90;;;24.80;46.10;;;;;;5030542;28;20237;-51
2021/08/21 06:14:02;;;;;;;1.88;1.77;;;24.80;46.20;;;;;;5030597;28;20202;-52
2021/08/21 06:16:28;;;;;;;2.22;1.77;;;24.80;46.20;;;;;;5031305;28;20209;-52
2021/08/21 06:18:55;;;;;;;2.33;2.13;;;24.80;46.20;;;;;;5030267;28;20240;-51
2021/08/21 06:21:21;;;;;;;1.50;1.40;;;24.80;46.30;;;;;;5030963;28;20218;-52
2021/08/21 06:23:48;;;;;;;1.95;1.70;;;24.80;46.30;;;;;;5031176;28;20202;-53
2021/08/21 06:26:14;;;;;;;2.53;1.73;;;24.80;46.30;;;;;;5031312;28;20201;-48
2021/08/21 06:28:41;;;;;;;2.28;1.42;;;24.80;46.40;;;;;;5029326;28;20207;-53
2021/08/21 06:31:07;;;;;;;2.00;1.88;;;24.80;46.40;;;;;;5029604;28;20221;-52
2021/08/21 06:33:33;;;;;;;1.90;1.50;;;24.80;46.40;;;;;;5030944;28;20209;-52
2021/08/21 06:36:00;;;;;;;2.03;1.55;;;24.80;46.40;;;;;;5031859;28;20202;-53
2021/08/21 06:38:27;;;;;;;1.92;1.77;;;24.80;46.50;;;;;;5028090;28;20248;-47
2021/08/21 06:40:53;;;;;;;2.00;1.70;;;24.80;46.50;;;;;;5029830;28;21902;-49
2021/08/21 06:43:20;;;;;;;2.08;1.55;;;24.80;46.50;;;;;;5029414;28;20246;-48
2021/08/21 06:45:46;;;;;;;1.85;1.70;;;24.80;46.50;;;;;;5030302;28;20205;-47
2021/08/21 06:48:13;;;;;;;1.52;1.42;;;24.80;46.50;;;;;;5030651;28;20202;-51
2021/08/21 06:50:39;;;;;;;1.70;1.52;;;24.80;46.50;;;;;;5030367;28;20237;-52
2021/08/21 06:53:05;;;;;;;1.95;1.85;;;24.80;46.50;;;;;;5030506;28;20209;-52
2021/08/21 06:55:32;;;;;;;3.33;1.77;;;24.80;46.50;;;;;;5025457;28;20208;-52
2021/08/21 06:57:58;;;;;;;1.95;1.77;;;24.80;46.50;;;;;;5028392;28;20229;-49
2021/08/21 07:00:25;;;;;;;1.77;1.42;;;24.80;46.50;;;;;;5029050;28;20298;-52
2021/08/21 07:02:51;;;;;;;1.80;1.70;;;24.80;46.50;;;;;;5030958;28;20202;-52
2021/08/21 07:05:18;;;;;;;3.60;1.60;;;24.80;46.50;;;;;;5029009;28;20205;-49
2021/08/21 07:07:44;;;;;;;1.52;1.42;;;24.80;46.30;;;;;;5027648;28;20590;-49
2021/08/21 07:10:11;;;;;;;3.33;1.75;;;24.90;46.40;;;;;;5029087;28;20223;-47
2021/08/21 07:12:37;;;;;;;1.83;1.50;;;24.90;46.40;;;;;;5028593;28;20194;-48
2021/08/21 07:15:04;;;;;;;2.42;1.58;;;24.90;46.20;;;;;;5030495;28;20204;-44
2021/08/21 07:17:30;;;;;;;2.20;1.73;;;24.90;46.30;;;;;;5028452;28;20202;-48
2021/08/21 07:19:57;;;;;;;3.38;1.60;;;24.90;46.90;;;;;;5029977;28;20234;-53
2021/08/21 07:22:23;;;;;;;2.28;1.42;;;24.90;46.20;;;;;;5028604;28;20198;-52
2021/08/21 07:24:50;;;;;;;2.80;1.77;;;24.90;46.30;;;;;;5022311;28;20201;-48
2021/08/21 07:27:16;;;;;;;3.30;1.75;;;24.90;46.20;;;;;;5031223;28;20253;-50
2021/08/21 07:29:42;;;;;;;2.03;1.63;;;24.90;46.50;;;;;;5026772;28;20212;-49
2021/08/21 07:32:09;;;;;;;2.75;1.65;;;24.90;46.90;;;;;;5027324;28;20198;-50
2021/08/21 07:34:36;;;;;;;2.63;1.70;;;24.90;46.30;;;;;;5023002;28;20565;-50
2021/08/21 07:37:03;;;;;;;1.52;1.40;;;24.90;46.40;;;;;;5027468;28;20203;-47
2021/08/21 07:39:30;;;;;;;2.50;1.80;;;24.90;46.10;;;;;;5029762;28;20226;-50
2021/08/21 07:41:56;;;;;;;2.58;1.90;;;24.90;46.30;;;;;;5028737;28;20194;-53
2021/08/21 07:44:23;;;;;;;1.92;1.50;;;25.00;46.80;;;;;;5028817;28;20573;-49
2021/08/21 07:46:50;;;;;;;3.50;1.98;;;25.00;46.30;;;;;;5027623;28;20526;-52
2021/08/21 07:49:16;;;;;;;5.18;1.88;;;25.00;46.30;;;;;;5023526;28;20218;-52
2021/08/21 07:51:43;;;;;;;3.90;1.90;;;25.00;46.40;;;;;;5027248;28;20554;-51
2021/08/21 07:54:09;;;;;;;6.28;2.40;;;25.10;46.30;;;;;;5032475;28;20282;-55
2021/08/21 07:56:36;;;;;;;7.13;3.05;;;25.10;47.90;;;;;;5029536;28;20206;-50
2021/08/21 07:59:02;;;;;;;9.50;3.35;;;25.10;48.60;;;;;;5029273;28;20234;-49
2021/08/21 08:01:29;;;;;;;7.13;3.28;;;25.00;48.50;;;;;;5038222;28;20217;-54
2021/08/21 08:03:55;;;;;;;8.30;3.28;;;25.00;48.50;;;;;;5039325;28;20286;-55
2021/08/21 08:06:22;;;;;;;9.63;2.85;;;25.00;48.50;;;;;;5027678;28;20293;-55
2021/08/21 08:08:49;;;;;;;8.52;3.13;;;25.00;48.50;;;;;;5029907;28;20297;-54
2021/08/21 08:11:15;;;;;;;8.98;3.13;;;25.00;49.30;;;;;;5028758;28;20679;-56
2021/08/21 08:13:42;;;;;;;12.68;3.78;;;25.00;48.70;;;;;;5028407;28;20653;-58
2021/08/21 08:16:09;;;;;;;7.47;3.28;;;25.00;50.70;;;;;;5028604;28;20688;-57
2021/08/21 08:18:35;;;;;;;8.18;4.68;;;25.00;51.10;;;;;;5021108;28;20223;-56
2021/08/21 08:21:02;;;;;;;7.53;3.85;;;24.80;48.40;;;;;;5029098;28;20440;-51
2021/08/21 08:23:28;;;;;;;7.63;3.55;;;24.80;50.40;;;;;;5030258;28;20216;-54
2021/08/21 08:25:54;;;;;;;8.60;4.30;;;24.90;50.70;;;;;;5033104;28;20207;-56
2021/08/21 08:28:21;;;;;;;7.70;3.35;;;24.90;51.30;;;;;;5029807;28;20203;-54
2021/08/21 08:30:47;;;;;;;6.28;3.53;;;24.90;50.40;;;;;;5032553;28;20534;-55
2021/08/21 08:33:14;;;;;;;6.47;3.17;;;24.90;50.80;;;;;;5032178;28;20206;-54
2021/08/21 08:35:40;;;;;;;9.18;3.63;;;24.90;50.90;;;;;;5032053;28;20221;-53
2021/08/21 08:38:07;;;;;;;5.38;3.15;;;25.00;50.60;;;;;;5030847;28;20248;-55
2021/08/21 08:40:33;;;;;;;4.93;3.42;;;24.90;50.20;;;;;;5031204;28;20229;-56
2021/08/21 08:43:00;;;;;;;7.35;3.33;;;24.90;50.00;;;;;;5030847;28;20293;-54
2021/08/21 08:45:26;;;;;;;6.38;3.05;;;25.00;50.00;;;;;;5025757;28;20647;-56
2021/08/21 08:47:53;;;;;;;5.07;2.63;;;25.00;49.50;;;;;;5027274;28;20549;-52
2021/08/21 08:50:20;;;;;;;3.78;2.40;;;25.00;50.60;;;;;;5020130;28;20309;-55
2021/08/21 08:52:46;;;;;;;5.45;3.05;;;25.00;50.20;;;;;;5031032;28;20208;-53
2021/08/21 08:55:13;;;;;;;3.53;2.53;;;25.00;50.00;;;;;;5031965;28;20290;-55
2021/08/21 08:57:39;;;;;;;4.50;2.33;;;25.00;50.10;;;;;;5031557;28;20242;-56
2021/08/21 09:00:05;;;;;;;5.28;2.50;;;25.00;49.50;;;;;;5029662;28;20238;-55
2021/08/21 09:02:32;;;;;;;3.78;2.33;;;25.00;49.50;;;;;;5030488;28;20282;-54
2021/08/21 09:04:59;;;;;;;4.80;2.80;;;25.00;49.20;;;;;;5031529;28;20198;-55
2021/08/21 09:07:25;;;;;;;5.55;2.45;;;25.00;49.30;;;;;;5031124;28;20205;-54
2021/08/21 09:09:52;;;;;;;6.63;2.65;;;25.00;49.40;;;;;;5025023;28;20222;-56
2021/08/21 09:12:18;;;;;;;5.28;3.03;;;25.00;49.50;;;;;;5037561;28;20200;-58
2021/08/21 09:14:44;;;;;;;3.83;2.90;;;24.90;48.20;;;;;;5042003;28;20202;-47
2021/08/21 09:17:11;;;;;;;2.90;2.55;;;24.90;48.50;;;;;;5031076;28;20206;-50
2021/08/21 09:19:37;;;;;;;4.93;2.80;;;25.00;48.50;;;;;;5030105;28;20241;-52
2021/08/21 09:22:05;;;;;;;3.38;2.67;;;25.00;48.50;;;;;;5033344;28;20204;-53
2021/08/21 09:24:32;;;;;;;4.57;2.78;;;25.10;49.10;;;;;;5031499;28;20344;-51
2021/08/21 09:26:58;;;;;;;3.20;2.80;;;25.20;48.60;;;;;;5029315;28;20208;-47
2021/08/21 09:29:26;;;;;;;5.47;2.67;;;25.20;49.90;;;;;;5036020;28;20290;-57
2021/08/21 09:31:53;;;;;;;3.95;2.33;;;25.20;50.00;;;;;;5036691;28;20630;-58
2021/08/21 09:34:19;;;;;;;3.15;2.80;;;25.10;49.20;;;;;;5032114;28;20203;-59
2021/08/21 09:36:46;;;;;;;4.28;2.63;;;25.10;49.20;;;;;;5033661;28;20658;-58
2021/08/21 09:39:12;;;;;;;4.63;2.80;;;25.10;49.20;;;;;;5041547;28;20256;-58
2021/08/21 09:41:39;;;;;;;5.20;3.10;;;25.10;48.60;;;;;;5029497;28;20233;-57
2021/08/21 09:44:05;;;;;;;3.63;2.85;;;25.10;49.10;;;;;;5018690;28;20207;-57
2021/08/21 09:46:33;;;;;;;3.67;2.55;;;25.10;48.90;;;;;;5024977;28;20242;-57
2021/08/21 09:48:59;;;;;;;3.78;2.95;;;25.10;48.70;;;;;;5031578;28;20228;-57
2021/08/21 09:51:26;;;;;;;3.72;2.85;;;25.10;49.10;;;;;;5030977;28;20209;-56
2021/08/21 09:53:52;;;;;;;3.15;2.67;;;25.10;48.90;;;;;;5031443;28;20222;-56
2021/08/21 09:56:19;;;;;;;5.15;3.40;;;25.10;49.30;;;;;;5031511;28;20199;-56
2021/08/21 09:58:45;;;;;;;4.20;3.10;;;25.00;49.60;;;;;;5031643;28;20233;-54
2021/08/21 10:01:11;;;;;;;4.93;3.50;;;25.00;49.80;;;;;;5030939;28;20313;-56
2021/08/21 10:03:38;;;;;;;3.35;3.08;;;25.00;49.80;;;;;;5031400;28;20202;-57
2021/08/21 10:06:05;;;;;;;3.50;2.80;;;25.00;49.80;;;;;;5029847;28;21267;-57
2021/08/21 10:08:31;;;;;;;3.45;2.50;;;25.00;49.90;;;;;;5031571;28;20892;-57
2021/08/21 10:10:59;;;;;;;4.15;3.13;;;25.00;49.80;;;;;;5030794;28;20227;-57
2021/08/21 10:13:27;;;;;;;3.78;3.22;;;25.00;49.80;;;;;;5031641;28;20294;-58
2021/08/21 10:15:54;;;;;;;3.78;3.47;;;25.00;49.80;;;;;;5031225;28;20260;-56
2021/08/21 10:18:20;;;;;;;3.50;2.58;;;25.00;49.70;;;;;;5026165;28;20198;-56
2021/08/21 10:20:46;;;;;;;3.45;3.05;;;25.00;49.70;;;;;;5021906;28;20257;-55
2021/08/21 10:23:13;;;;;;;3.45;2.88;;;25.00;49.90;;;;;;5031538;28;20201;-56
2021/08/21 10:25:39;;;;;;;3.50;3.00;;;25.00;49.90;;;;;;5031656;28;20198;-56
2021/08/21 10:28:06;;;;;;;4.03;3.10;;;25.00;49.70;;;;;;5031189;28;20209;-57
2021/08/21 10:30:32;;;;;;;3.08;2.78;;;25.00;49.70;;;;;;5030634;28;20226;-56
2021/08/21 10:32:59;;;;;;;4.32;3.15;;;25.00;49.70;;;;;;5031100;28;20198;-56
2021/08/21 10:35:25;;;;;;;4.10;3.03;;;25.00;49.70;;;;;;5031520;28;20194;-57
2021/08/21 10:37:52;;;;;;;3.13;2.83;;;25.00;49.60;;;;;;5031599;28;20213;-57
2021/08/21 10:40:18;;;;;;;3.67;3.25;;;25.00;49.70;;;;;;5030340;28;20238;-58
2021/08/21 10:42:44;;;;;;;3.30;3.00;;;25.00;49.70;;;;;;5028838;28;20209;-59
2021/08/21 10:45:11;;;;;;;3.47;2.95;;;25.00;49.20;;;;;;5038851;28;20202;-55
2021/08/21 10:47:38;;;;;;;4.40;2.92;;;25.10;48.60;;;;;;5036286;28;20220;-58
2021/08/21 10:50:04;;;;;;;3.90;3.40;;;25.10;49.30;;;;;;5030532;28;20308;-59
2021/08/21 10:52:31;;;;;;;5.18;3.00;;;25.20;50.50;;;;;;5030187;28;20211;-60
2021/08/21 10:54:57;;;;;;;5.07;3.20;;;25.20;49.10;;;;;;5029605;28;20247;-65
2021/08/21 10:57:24;;;;;;;6.88;3.15;;;25.20;49.10;;;;;;5029865;28;20203;-63
2021/08/21 10:59:50;;;;;;;4.45;2.67;;;25.10;48.80;;;;;;5028787;28;20305;-60
2021/08/21 11:02:17;;;;;;;2.95;2.65;;;25.20;49.10;;;;;;5027803;28;20202;-59
2021/08/21 11:04:43;;;;;;;3.00;2.70;;;25.20;48.90;;;;;;5029176;28;20201;-62
2021/08/21 11:07:09;;;;;;;4.47;2.70;;;25.20;48.60;;;;;;5030981;28;20209;-61
2021/08/21 11:09:36;;;;;;;4.55;2.80;;;25.20;48.60;;;;;;5030154;28;20222;-59
2021/08/21 11:12:02;;;;;;;4.25;2.90;;;25.20;48.60;;;;;;5030338;28;20679;-52
2021/08/21 11:14:29;;;;;;;4.55;2.58;;;25.20;49.60;;;;;;5029352;28;20663;-52
2021/08/21 11:16:57;;;;;;;3.28;2.92;;;25.20;49.20;;;;;;5031110;28;20283;-52
2021/08/21 11:19:23;;;;;;;3.55;3.03;;;25.20;49.20;;;;;;5028725;28;20247;-55
2021/08/21 11:21:50;;;;;;;3.63;3.08;;;25.20;49.20;;;;;;5027937;28;20212;-53
2021/08/21 11:24:17;;;;;;;3.78;2.95;;;25.20;49.50;;;;;;5025729;28;20230;-53
2021/08/21 11:26:43;;;;;;;3.47;3.17;;;25.20;49.50;;;;;;5027925;28;20208;-49
2021/08/21 11:29:09;;;;;;;2.90;2.65;;;25.20;49.70;;;;;;5028120;28;20236;-52
2021/08/21 11:31:36;;;;;;;4.28;3.13;;;25.20;49.50;;;;;;5027031;28;20199;-54
2021/08/21 11:34:02;;;;;;;5.07;3.40;;;25.20;49.60;;;;;;5030498;28;20217;-53
2021/08/21 11:36:29;;;;;;;4.05;3.65;;;25.20;49.90;;;;;;5028362;28;20207;-55
2021/08/21 11:38:55;;;;;;;4.97;3.65;;;25.20;49.70;;;;;;5027495;28;20756;-59
2021/08/21 11:41:22;;;;;;;3.92;3.33;;;25.20;48.10;;;;;;5029134;28;20687;-59
2021/08/21 11:43:48;;;;;;;5.95;4.10;;;25.20;48.60;;;;;;5029810;28;20663;-59
2021/08/21 11:46:15;;;;;;;4.50;4.10;;;25.20;48.60;;;;;;5028859;28;20666;-59
2021/08/21 11:48:41;;;;;;;4.85;4.03;;;25.20;49.10;;;;;;5029002;28;20721;-58
2021/08/21 11:51:07;;;;;;;4.13;3.72;;;25.20;49.70;;;;;;5023851;28;20207;-58
2021/08/21 11:53:34;;;;;;;4.38;3.97;;;25.20;49.90;;;;;;5029178;28;20727;-58
2021/08/21 11:56:01;;;;;;;4.22;3.83;;;25.20;49.80;;;;;;5028595;28;20203;-59
2021/08/21 11:58:27;;;;;;;4.22;3.80;;;25.20;49.60;;;;;;5030201;28;20232;-59
2021/08/21 12:00:55;;;;;;;4.32;3.92;;;25.20;50.40;;;;;;5029266;28;20236;-58
2021/08/21 12:03:21;;;;;;;5.88;4.40;;;25.20;50.50;;;;;;5024756;28;20598;-59
2021/08/21 12:05:48;;;;;;;4.70;4.30;;;25.20;50.70;;;;;;5029234;28;20655;-59
2021/08/21 12:08:14;;;;;;;5.45;4.53;;;25.20;50.20;;;;;;5032911;28;20711;-59
2021/08/21 12:10:41;;;;;;;5.50;4.20;;;25.20;50.40;;;;;;5032514;28;20206;-59
2021/08/21 12:13:07;;;;;;;4.50;4.10;;;25.20;50.20;;;;;;5032262;28;20198;-58
2021/08/21 12:15:34;;;;;;;4.80;4.40;;;25.20;50.40;;;;;;5032728;28;20210;-58
2021/08/21 12:18:00;;;;;;;6.03;4.20;;;25.20;50.10;;;;;;5033779;28;20209;-56
2021/08/21 12:20:27;;;;;;;4.35;3.92;;;25.20;50.20;;;;;;5032969;28;20250;-56
2021/08/21 12:22:53;;;;;;;4.30;3.90;;;25.20;50.50;;;;;;5028526;28;20238;-59
2021/08/21 12:25:19;;;;;;;4.20;3.78;;;25.20;50.40;;;;;;5033058;28;20199;-59
2021/08/21 12:27:46;;;;;;;4.50;4.10;;;25.20;50.10;;;;;;5033749;28;20206;-58
2021/08/21 12:30:12;;;;;;;5.00;4.35;;;25.20;50.20;;;;;;5030884;28;20312;-58
2021/08/21 12:32:39;;;;;;;4.93;3.95;;;25.20;49.90;;;;;;5030165;28;20212;-58
2021/08/21 12:35:05;;;;;;;4.82;3.63;;;25.20;50.00;;;;;;5031903;28;20209;-58
2021/08/21 12:37:32;;;;;;;4.55;4.10;;;25.20;50.00;;;;;;5031628;28;20205;-58
2021/08/21 12:39:58;;;;;;;4.53;4.13;;;25.20;50.10;;;;;;5032787;28;20222;-58
2021/08/21 12:42:24;;;;;;;4.60;4.18;;;25.20;50.10;;;;;;5027281;28;20594;-58